NCAR-RAP Real-Time Weather Data

Output produced by METARs form (23 February 2020  02:07 UTC)
found at http://weather.rap.ucar.edu/surface/
 
KMCI 230153Z 18009KT 10SM SCT200 06/M01 A3005 RMK AO2 SLP181 T00611006
KMCI 230053Z 18009KT 10SM SCT200 07/00 A3004 RMK AO2 SLP178 T00720000
KMCI 222353Z 18009KT 10SM FEW150 BKN200 07/M01 A3004 RMK AO2 SLP176 T00721006 10128 20072 57011
KMCI 222253Z 20011KT 10SM FEW150 BKN200 12/00 A3005 RMK AO2 SLP180 T01220000
KMCI 222153Z 21018G24KT 10SM FEW150 BKN200 13/00 A3005 RMK AO2 SLP179 T01280000
KMCI 222053Z 20014G24KT 10SM BKN140 BKN200 12/M01 A3007 RMK AO2 PK WND 19028/2008 SLP186 T01221006 56032
KMCI 221953Z 21013KT 10SM BKN140 BKN200 12/M02 A3010 RMK AO2 SLP197 T01171017
KMCI 221853Z 20013KT 10SM BKN140 BKN200 10/M02 A3014 RMK AO2 SLP210 T01001022
KMCI 221753Z 21012KT 10SM BKN140 BKN200 09/M03 A3017 RMK AO2 SLP220 T00891033 10094 21006 58017
KMCI 221653Z 21015G21KT 10SM BKN140 BKN200 08/M04 A3020 RMK AO2 SLP231 T00781039
KMCI 221553Z 21014KT 10SM BKN140 BKN200 05/M06 A3021 RMK AO2 SLP237 T00501056
KMCI 221453Z 20012KT 10SM BKN140 BKN200 03/M07 A3022 RMK AO2 SLP240 T00331067 56005
KMCI 221353Z 20012KT 10SM SCT140 SCT200 01/M08 A3022 RMK AO2 SLP242 T00111078
KMCI 221253Z 20012KT 10SM FEW140 SCT200 01/M08 A3021 RMK AO2 SLP238 T00061078
KMCI 221153Z 19009KT 10SM CLR M01/M08 A3024 RMK AO2 SLP247 T10061083 10017 21006 56010
KMCI 221053Z 20010KT 10SM CLR 01/M08 A3024 RMK AO2 SLP247 T00061083
KMCI 220953Z 21009KT 10SM CLR 01/M09 A3025 RMK AO2 SLP248 T00111089
KMCI 220853Z 21011KT 10SM CLR 01/M09 A3027 RMK AO2 SLP256 T00111089 58015
KMCI 220753Z 20011KT 10SM CLR 01/M09 A3028 RMK AO2 SLP261 T00061089
KMCI 220653Z 20009KT 10SM CLR 00/M08 A3030 RMK AO2 SLP268 T00001083
KMCI 220553Z 21010KT 10SM CLR 01/M09 A3032 RMK AO2 SLP272 T00061089 10039 20000 400721100 58012
KMCI 220453Z 21013KT 10SM CLR 02/M08 A3034 RMK AO2 SLP282 T00171083
KMCI 220353Z 20010KT 10SM CLR 01/M08 A3035 RMK AO2 SLP287 T00111078
KMCI 220253Z 20012KT 10SM CLR 01/M08 A3035 RMK AO2 SLP288 T00111078 58008
KMCI 220153Z 20010KT 10SM CLR 01/M07 A3037 RMK AO2 SLP295 T00061072
KMCI 220053Z 20010KT 10SM CLR 02/M07 A3037 RMK AO2 SLP295 T00221072
KMCI 212353Z 21010KT 10SM CLR 04/M07 A3038 RMK AO2 SLP297 T00391072 10072 20033 56023
KMCI 212253Z 20012KT 10SM CLR 06/M07 A3039 RMK AO2 SLP301 T00561067
KMCI 212153Z 19012G20KT 10SM CLR 07/M08 A3041 RMK AO2 SLP308 T00671078
KMCI 212053Z 21011G21KT 10SM CLR 07/M09 A3045 RMK AO2 SLP319 T00671089 56042
KMCI 211953Z 21010G20KT 10SM CLR 06/M09 A3048 RMK AO2 SLP331 T00611094
KMCI 211853Z 22013KT 10SM CLR 05/M10 A3053 RMK AO2 SLP347 T00501100
KMCI 211753Z 20013KT 10SM CLR 04/M10 A3057 RMK AO2 SLP362 T00391100 10039 21100 58018
KMCI 211653Z 21011KT 10SM CLR 02/M09 A3059 RMK AO2 SLP369 T00221089
KMCI 211553Z 23014KT 10SM CLR M01/M09 A3062 RMK AO2 SLP379 T10061094
KMCI 211453Z 21012KT 10SM CLR M03/M09 A3062 RMK AO2 SLP383 T10331094 55002
KMCI 211353Z 20007KT 10SM CLR M07/M11 A3061 RMK AO2 SLP381 T10721111
KMCI 211253Z 21006KT 10SM CLR M10/M14 A3062 RMK AO2 SLP386 T11001139
KMCI 211153Z 22006KT 10SM CLR M09/M14 A3063 RMK AO2 SLP387 T10891139 11056 21100 56013
KMCI 211053Z 21006KT 10SM CLR M09/M14 A3063 RMK AO2 SLP386 T10941139
KMCI 210953Z 21006KT 10SM CLR M09/M13 A3065 RMK AO2 SLP391 T10891133
KMCI 210853Z 19006KT 10SM CLR M08/M13 A3067 RMK AO2 SLP398 T10831133 58014
KMCI 210753Z 18005KT 10SM CLR M08/M13 A3069 RMK AO2 SLP406 T10781128
KMCI 210653Z 18005KT 10SM CLR M07/M14 A3071 RMK AO2 SLP411 T10671144
KMCI 210553Z 00000KT 10SM CLR M05/M14 A3071 RMK AO2 SLP413 T10501144 11033 21078 400061078 58003
KMCI 210453Z 00000KT 10SM CLR M06/M14 A3072 RMK AO2 SLP415 T10561144
KMCI 210353Z 30003KT 10SM CLR M04/M14 A3073 RMK AO2 SLP420 T10441144
KMCI 210253Z 35003KT 10SM CLR M04/M14 A3072 RMK AO2 SLP417 T10391144 50003